< < Back
Terminal Aerodrome Forecast


Current Version              Previous Versions:   1  2  3  4  5  6  7  8  9  

Terminal Aerodrome Forecast

888
FTUS42 KJAX 232100 AAB
TAFJAX
TAF AMD
KJAX 232124Z 2321/2418 12008KT P6SM VCTS BKN040CB
      TEMPO 2321/2323 3SM TSRA OVC020CB
     FM240000 22004KT P6SM SCT250
     FM241400 25006KT P6SM SCT020 SCT250=



Latest METAR

146
SAUS80 KWBC 232200 RRA
MTRJAX
METAR KJAX 232156Z 09011KT 10SM TS FEW020 BKN044CB BKN100 BKN250 28/25
A3000 RMK AO2 TSE36B49 SLP159 OCNL LTGIC OHD TS OHD MOV NE
T02830250


USA.gov is the U.S. government's official web portal to all federal, state and local government web resources and services.